createdAt,value
2023-04-04T00:01:42.997Z,100778.94
2023-04-04T00:04:09.435Z,100777.00
2023-04-04T00:06:36.553Z,100775.31
2023-04-04T00:09:02.975Z,100772.75
2023-04-04T00:11:29.390Z,100766.41
2023-04-04T00:13:55.860Z,100771.69
2023-04-04T00:16:22.369Z,100765.78
2023-04-04T00:18:48.892Z,100765.50
2023-04-04T00:21:15.357Z,100767.22
2023-04-04T00:23:41.736Z,100774.25
2023-04-04T00:26:08.119Z,100770.63
2023-04-04T00:28:34.552Z,100773.41
2023-04-04T00:31:01.482Z,100774.59
2023-04-04T00:33:27.912Z,100771.59
2023-04-04T00:35:54.748Z,100778.56
2023-04-04T00:38:21.208Z,100778.81
2023-04-04T00:40:50.409Z,100784.09
2023-04-04T00:43:18.381Z,100777.59
2023-04-04T00:45:45.013Z,100782.19
2023-04-04T00:48:12.024Z,100784.31
2023-04-04T00:50:38.687Z,100784.31
2023-04-04T00:53:05.468Z,100780.75
2023-04-04T00:55:32.513Z,100781.03
2023-04-04T00:58:00.224Z,100783.88
2023-04-04T01:00:27.476Z,100775.56
2023-04-04T01:02:53.967Z,100778.66
2023-04-04T01:05:20.506Z,100773.34
2023-04-04T01:07:47.015Z,100770.19
2023-04-04T01:10:13.458Z,100775.28
2023-04-04T01:12:41.568Z,100770.81
2023-04-04T01:15:08.620Z,100772.63
2023-04-04T01:17:35.789Z,100768.22
2023-04-04T01:20:17.237Z,100765.03
2023-04-04T01:22:46.200Z,100762.81
2023-04-04T01:25:14.484Z,100766.28
2023-04-04T01:27:41.423Z,100773.56
2023-04-04T01:30:08.971Z,100772.66
2023-04-04T01:32:45.871Z,100767.50
2023-04-04T01:35:27.385Z,100772.63
2023-04-04T01:37:59.838Z,100759.53
2023-04-04T01:40:35.008Z,100761.66
2023-04-04T01:43:01.853Z,100762.22
2023-04-04T01:45:29.604Z,100766.00
2023-04-04T01:47:57.066Z,100759.22
2023-04-04T01:50:23.660Z,100766.28
2023-04-04T01:52:50.139Z,100761.63
2023-04-04T01:55:16.614Z,100774.03
2023-04-04T01:57:43.095Z,100767.53
2023-04-04T02:00:10.954Z,100774.00
2023-04-04T02:02:37.408Z,100766.47
2023-04-04T02:05:04.186Z,100772.94
2023-04-04T02:07:30.591Z,100775.66
2023-04-04T02:09:57.871Z,100774.16
2023-04-04T02:12:24.271Z,100767.50
2023-04-04T02:14:50.773Z,100764.78
2023-04-04T02:17:17.149Z,100773.56
2023-04-04T02:19:43.730Z,100764.19
2023-04-04T02:22:10.325Z,100767.81
2023-04-04T02:24:36.702Z,100773.25
2023-04-04T02:27:04.451Z,100774.44
2023-04-04T02:29:31.065Z,100762.69
2023-04-04T02:31:57.485Z,100761.94
2023-04-04T02:34:23.957Z,100766.47
2023-04-04T02:36:50.547Z,100772.50
2023-04-04T02:39:16.926Z,100765.69
2023-04-04T02:41:43.337Z,100765.38
2023-04-04T02:44:10.142Z,100763.28
2023-04-04T02:46:36.763Z,100766.78
2023-04-04T02:49:03.699Z,100766.59
2023-04-04T02:51:30.152Z,100762.09
2023-04-04T02:53:56.583Z,100771.28
2023-04-04T02:56:23.058Z,100780.56
2023-04-04T02:58:49.449Z,100776.84
2023-04-04T03:01:16.167Z,100781.06
2023-04-04T03:03:42.743Z,100773.22
2023-04-04T03:06:09.167Z,100777.16
2023-04-04T03:08:38.389Z,100780.75
2023-04-04T03:11:04.875Z,100779.84
2023-04-04T03:13:31.393Z,100781.06
2023-04-04T03:16:00.054Z,100781.53
2023-04-04T03:18:26.675Z,100778.06
2023-04-04T03:20:53.054Z,100781.34
2023-04-04T03:23:19.429Z,100778.34
2023-04-04T03:25:46.375Z,100782.84
2023-04-04T03:28:13.526Z,100782.78
2023-04-04T03:30:40.068Z,100784.97
2023-04-04T03:33:09.936Z,100789.81
2023-04-04T03:35:40.557Z,100785.88
2023-04-04T03:38:07.909Z,100792.91
2023-04-04T03:40:34.390Z,100792.47
2023-04-04T03:43:02.375Z,100796.38
2023-04-04T03:45:30.260Z,100794.00
2023-04-04T03:47:56.695Z,100791.25
2023-04-04T03:50:23.182Z,100798.16
2023-04-04T03:52:49.629Z,100793.38
2023-04-04T03:55:16.246Z,100801.78
2023-04-04T03:57:42.789Z,100792.09
2023-04-04T04:00:09.802Z,100798.28
2023-04-04T04:02:36.373Z,100801.09
2023-04-04T04:05:03.723Z,100803.66
2023-04-04T04:07:30.144Z,100802.16
2023-04-04T04:09:56.977Z,100811.22
2023-04-04T04:12:23.677Z,100810.91
2023-04-04T04:14:50.113Z,100818.28
2023-04-04T04:17:16.502Z,100820.69
2023-04-04T04:19:42.920Z,100821.84
2023-04-04T04:22:10.241Z,100816.38
2023-04-04T04:24:36.697Z,100817.25
2023-04-04T04:27:03.078Z,100825.94
2023-04-04T04:29:30.256Z,100820.69
2023-04-04T04:31:57.779Z,100828.25
2023-04-04T04:34:24.453Z,100829.63
2023-04-04T04:36:50.850Z,100836.31
2023-04-04T04:39:17.250Z,100836.31
2023-04-04T04:41:43.658Z,100849.19
2023-04-04T04:44:10.093Z,100845.44
2023-04-04T04:46:36.635Z,100844.94
2023-04-04T04:49:03.480Z,100845.38
2023-04-04T04:51:29.966Z,100843.84
2023-04-04T04:53:56.452Z,100849.44
2023-04-04T04:56:22.891Z,100843.38
2023-04-04T04:58:50.990Z,100847.13
2023-04-04T05:01:17.666Z,100843.91
2023-04-04T05:03:44.132Z,100842.41
2023-04-04T05:06:10.648Z,100846.94
2023-04-04T05:08:37.186Z,100853.19
2023-04-04T05:11:05.311Z,100854.38
2023-04-04T05:13:32.181Z,100854.38
2023-04-04T05:15:58.576Z,100857.91
2023-04-04T05:18:26.422Z,100860.06
2023-04-04T05:20:54.675Z,100854.84
2023-04-04T05:23:21.681Z,100851.66
2023-04-04T05:25:53.306Z,100852.56
2023-04-04T05:28:20.807Z,100860.47
2023-04-04T05:30:47.521Z,100861.00
2023-04-04T05:33:13.954Z,100868.16
2023-04-04T05:35:41.279Z,100871.97
2023-04-04T05:38:07.858Z,100880.06
2023-04-04T05:40:34.289Z,100879.41
2023-04-04T05:43:04.160Z,100881.31
2023-04-04T05:45:31.689Z,100889.31
2023-04-04T05:47:58.268Z,100880.91
2023-04-04T05:50:24.778Z,100886.47
2023-04-04T05:52:53.968Z,100891.34
2023-04-04T05:55:20.460Z,100883.91
2023-04-04T05:57:50.820Z,100884.44
2023-04-04T06:00:18.418Z,100893.50
2023-04-04T06:02:45.304Z,100890.09
2023-04-04T06:05:11.876Z,100889.19
2023-04-04T06:07:38.333Z,100898.22
2023-04-04T06:10:06.141Z,100896.78
2023-04-04T06:12:32.553Z,100902.47
2023-04-04T06:14:58.963Z,100901.25
2023-04-04T06:17:25.527Z,100907.38
2023-04-04T06:19:52.857Z,100905.53
2023-04-04T06:22:19.244Z,100910.66
2023-04-04T06:24:45.657Z,100914.47
2023-04-04T06:27:12.051Z,100912.03
2023-04-04T06:29:38.423Z,100913.69
2023-04-04T06:32:05.375Z,100917.09
2023-04-04T06:34:31.929Z,100915.31
2023-04-04T06:36:58.335Z,100912.34
2023-04-04T06:39:24.779Z,100913.31
2023-04-04T06:41:51.259Z,100917.00
2023-04-04T06:44:17.691Z,100921.06
2023-04-04T06:46:44.735Z,100916.25
2023-04-04T06:49:11.577Z,100915.22
2023-04-04T06:51:39.938Z,100922.78
2023-04-04T06:54:06.427Z,100915.44
2023-04-04T06:56:32.904Z,100919.75
2023-04-04T06:58:59.397Z,100924.50
2023-04-04T07:01:26.258Z,100921.66
2023-04-04T07:03:54.131Z,100931.13
2023-04-04T07:06:25.780Z,100929.94
2023-04-04T07:08:52.937Z,100932.59
2023-04-04T07:11:19.493Z,100931.53
2023-04-04T07:13:45.945Z,100932.59
2023-04-04T07:16:12.360Z,100934.41
2023-04-04T07:18:38.774Z,100937.19
2023-04-04T07:21:05.405Z,100940.47
2023-04-04T07:23:31.904Z,100936.72
2023-04-04T07:25:59.490Z,100938.72
2023-04-04T07:28:26.131Z,100934.69
2023-04-04T07:30:52.582Z,100935.44
2023-04-04T07:33:18.991Z,100940.59
2023-04-04T07:35:45.456Z,100939.06
2023-04-04T07:38:11.834Z,100936.09
2023-04-04T07:40:38.636Z,100945.97
2023-04-04T07:43:05.217Z,100934.66
2023-04-04T07:45:31.632Z,100935.94
2023-04-04T07:47:58.222Z,100938.34
2023-04-04T07:50:24.632Z,100933.53
2023-04-04T07:52:55.891Z,100929.28
2023-04-04T07:55:25.194Z,100918.53
2023-04-04T07:57:52.607Z,100924.09
2023-04-04T08:00:21.769Z,100924.38
2023-04-04T08:02:55.820Z,100921.97
2023-04-04T08:05:22.508Z,100919.38
2023-04-04T08:07:48.994Z,100932.84
2023-04-04T08:10:17.610Z,100922.75
2023-04-04T08:12:47.868Z,100923.22
2023-04-04T08:15:14.681Z,100917.97
2023-04-04T08:17:43.238Z,100911.69
2023-04-04T08:20:10.528Z,100918.19
2023-04-04T08:22:37.075Z,100917.00
2023-04-04T08:25:03.734Z,100909.91
2023-04-04T08:27:30.215Z,100918.03
2023-04-04T08:29:57.097Z,100920.41
2023-04-04T08:32:23.717Z,100913.78
2023-04-04T08:34:51.079Z,100923.41
2023-04-04T08:37:18.179Z,100916.38
2023-04-04T08:39:45.373Z,100916.69
2023-04-04T08:42:16.807Z,100918.09
2023-04-04T08:44:45.460Z,100918.97
2023-04-04T08:47:13.462Z,100913.16
2023-04-04T08:49:43.684Z,100914.53
2023-04-04T08:52:12.395Z,100918.41
2023-04-04T08:54:40.600Z,100910.25
2023-04-04T08:57:10.820Z,100912.13
2023-04-04T08:59:37.885Z,100912.13
2023-04-04T09:02:17.751Z,100916.59
2023-04-04T09:04:54.565Z,100909.50
2023-04-04T09:07:31.104Z,100902.88
2023-04-04T09:09:58.351Z,100915.56
2023-04-04T09:12:26.396Z,100911.72
2023-04-04T09:14:55.491Z,100907.25
2023-04-04T09:17:21.958Z,100903.34
2023-04-04T09:19:48.366Z,100905.47
2023-04-04T09:22:16.113Z,100900.41
2023-04-04T09:24:43.619Z,100902.31
2023-04-04T09:27:15.443Z,100912.50
2023-04-04T09:29:42.425Z,100909.09
2023-04-04T09:32:10.328Z,100906.28
2023-04-04T09:34:37.900Z,100911.72
2023-04-04T09:37:05.967Z,100912.97
2023-04-04T09:39:34.164Z,100904.78
2023-04-04T09:42:01.835Z,100905.47
2023-04-04T09:44:33.184Z,100903.13
2023-04-04T09:47:29.570Z,100907.22
2023-04-04T09:50:01.371Z,100900.31
2023-04-04T09:52:33.080Z,100901.59
2023-04-04T09:55:01.468Z,100911.72
2023-04-04T09:57:34.374Z,100896.81
2023-04-04T10:00:07.070Z,100903.91
2023-04-04T10:02:33.986Z,100896.44
2023-04-04T10:07:32.104Z,100901.78
2023-04-04T10:10:02.372Z,100894.59
2023-04-04T10:12:30.507Z,100896.78
2023-04-04T10:14:59.255Z,100902.47
2023-04-04T10:17:39.437Z,100906.63
2023-04-04T10:20:13.689Z,100899.75
2023-04-04T10:22:42.489Z,100900.78
2023-04-04T10:25:10.441Z,100892.84
2023-04-04T10:27:38.658Z,100894.06
2023-04-04T10:30:05.661Z,100891.31
2023-04-04T10:32:51.360Z,100893.28
2023-04-04T10:35:22.564Z,100884.72
2023-04-04T10:37:58.450Z,100887.97
2023-04-04T10:40:29.713Z,100887.03
2023-04-04T10:42:57.599Z,100895.44
2023-04-04T10:45:25.860Z,100900.22
2023-04-04T10:47:53.201Z,100898.06
2023-04-04T10:50:20.783Z,100899.94
2023-04-04T10:52:48.032Z,100889.16
2023-04-04T10:55:15.919Z,100883.41
2023-04-04T10:57:45.328Z,100877.28
2023-04-04T11:00:14.739Z,100883.72
2023-04-04T11:02:55.049Z,100880.72
2023-04-04T11:05:27.876Z,100877.91
2023-04-04T11:10:36.159Z,100884.56
2023-04-04T11:13:13.376Z,100888.78
2023-04-04T11:15:58.096Z,100873.38
2023-04-04T11:18:42.448Z,100874.56
2023-04-04T11:21:27.762Z,100875.25
2023-04-04T11:23:54.126Z,100868.88
2023-04-04T11:26:27.620Z,100872.47
2023-04-04T11:28:58.420Z,100874.72
2023-04-04T11:31:30.132Z,100859.78
2023-04-04T11:34:04.881Z,100860.50
2023-04-04T11:36:41.494Z,100851.47
2023-04-04T11:39:30.581Z,100851.44
2023-04-04T11:42:03.785Z,100855.78
2023-04-04T11:44:32.072Z,100853.03
2023-04-04T11:47:09.170Z,100853.59
2023-04-04T11:49:43.008Z,100841.97
2023-04-04T11:52:11.972Z,100852.25
2023-04-04T11:54:39.624Z,100842.59
2023-04-04T11:57:07.331Z,100847.06
2023-04-04T11:59:34.840Z,100848.03
2023-04-04T12:02:03.043Z,100833.06
2023-04-04T12:04:30.890Z,100830.53
2023-04-04T12:06:57.725Z,100821.34
2023-04-04T12:09:26.338Z,100826.56
2023-04-04T12:11:54.392Z,100822.53
2023-04-04T12:14:22.889Z,100823.22
2023-04-04T12:16:54.810Z,100832.09
2023-04-04T12:19:23.996Z,100821.47
2023-04-04T12:21:52.363Z,100818.31
2023-04-04T12:24:19.520Z,100813.88
2023-04-04T12:26:49.147Z,100815.72
2023-04-04T12:29:17.214Z,100806.78
2023-04-04T12:31:45.597Z,100796.88
2023-04-04T12:34:19.159Z,100809.91
2023-04-04T12:36:49.710Z,100802.38
2023-04-04T12:39:16.794Z,100799.84
2023-04-04T12:41:55.233Z,100794.75
2023-04-04T12:44:37.686Z,100799.78
2023-04-04T12:47:06.666Z,100799.13
2023-04-04T12:49:42.704Z,100787.25
2023-04-04T12:52:20.712Z,100784.94
2023-04-04T12:57:36.699Z,100786.53
2023-04-04T13:00:06.463Z,100784.94
2023-04-04T13:02:35.678Z,100782.63
2023-04-04T13:05:03.689Z,100783.44
2023-04-04T13:07:35.662Z,100782.75
2023-04-04T13:10:04.725Z,100778.66
2023-04-04T13:12:59.424Z,100783.97
2023-04-04T13:15:52.234Z,100769.84
2023-04-04T13:18:21.910Z,100769.63
2023-04-04T13:20:49.120Z,100766.34
2023-04-04T13:23:16.289Z,100764.97
2023-04-04T13:25:43.098Z,100767.13
2023-04-04T13:28:12.908Z,100764.66
2023-04-04T13:30:43.492Z,100761.47
2023-04-04T13:33:10.149Z,100760.75
2023-04-04T13:35:37.198Z,100752.75
2023-04-04T13:38:03.614Z,100752.56
2023-04-04T13:40:30.119Z,100749.50
2023-04-04T13:42:56.647Z,100755.88
2023-04-04T13:45:24.456Z,100746.22
2023-04-04T13:47:50.883Z,100749.81
2023-04-04T13:50:18.173Z,100749.22
2023-04-04T13:52:44.605Z,100730.72
2023-04-04T13:55:11.616Z,100737.97
2023-04-04T13:57:37.995Z,100734.78
2023-04-04T14:00:05.580Z,100736.09
2023-04-04T14:02:32.246Z,100735.84
2023-04-04T14:04:58.633Z,100735.44
2023-04-04T14:07:25.051Z,100725.38
2023-04-04T14:09:51.770Z,100724.97
2023-04-04T14:12:18.335Z,100726.97
2023-04-04T14:14:44.747Z,100727.47
2023-04-04T14:17:11.239Z,100725.50
2023-04-04T14:19:38.778Z,100719.06
2023-04-04T14:22:05.918Z,100725.88
2023-04-04T14:24:32.351Z,100724.31
2023-04-04T14:26:58.751Z,100725.91
2023-04-04T14:29:25.134Z,100721.09
2023-04-04T14:31:51.750Z,100728.31
2023-04-04T14:34:18.274Z,100718.72
2023-04-04T14:36:44.829Z,100719.97
2023-04-04T14:39:11.297Z,100713.25
2023-04-04T14:41:37.705Z,100712.91
2023-04-04T14:44:04.186Z,100710.16
2023-04-04T14:46:31.139Z,100712.69
2023-04-04T14:48:58.128Z,100708.06
2023-04-04T14:51:24.686Z,100706.31
2023-04-04T14:53:52.823Z,100703.72
2023-04-04T14:56:21.179Z,100702.53
2023-04-04T14:58:50.288Z,100705.09
2023-04-04T15:01:17.431Z,100702.13
2023-04-04T15:03:43.890Z,100706.22
2023-04-04T15:06:10.411Z,100704.69
2023-04-04T15:08:37.052Z,100707.63
2023-04-04T15:11:03.688Z,100697.34
2023-04-04T15:13:30.526Z,100696.66
2023-04-04T15:15:57.446Z,100701.41
2023-04-04T15:18:24.038Z,100699.56
2023-04-04T15:20:50.584Z,100701.81
2023-04-04T15:23:17.174Z,100697.75
2023-04-04T15:25:43.755Z,100710.22
2023-04-04T15:28:10.334Z,100701.31
2023-04-04T15:30:36.851Z,100701.88
2023-04-04T15:33:03.317Z,100699.16
2023-04-04T15:35:29.749Z,100701.22
2023-04-04T15:37:56.162Z,100701.63
2023-04-04T15:40:22.693Z,100706.44
2023-04-04T15:42:49.194Z,100700.50
2023-04-04T15:45:16.544Z,100696.66
2023-04-04T15:47:43.595Z,100705.53
2023-04-04T15:50:11.643Z,100700.28
2023-04-04T15:52:38.546Z,100698.56
2023-04-04T15:55:10.330Z,100701.28
2023-04-04T15:57:36.732Z,100699.72
2023-04-04T16:00:03.766Z,100700.25
2023-04-04T16:02:31.816Z,100696.94
2023-04-04T16:04:58.307Z,100694.09
2023-04-04T16:07:24.683Z,100691.34
2023-04-04T16:09:51.380Z,100697.31
2023-04-04T16:12:17.850Z,100691.06
2023-04-04T16:14:44.225Z,100701.75
2023-04-04T16:17:10.933Z,100696.31
2023-04-04T16:19:37.332Z,100699.88
2023-04-04T16:22:05.383Z,100692.75
2023-04-04T16:24:32.224Z,100696.88
2023-04-04T16:26:58.663Z,100699.69
2023-04-04T16:29:25.142Z,100694.44
2023-04-04T16:31:53.129Z,100702.53
2023-04-04T16:34:19.593Z,100698.44
2023-04-04T16:36:46.225Z,100698.72
2023-04-04T16:39:13.292Z,100702.53
2023-04-04T16:41:40.957Z,100704.34
2023-04-04T16:44:07.417Z,100708.97
2023-04-04T16:46:33.867Z,100701.31
2023-04-04T16:49:00.363Z,100707.44
2023-04-04T16:51:27.748Z,100702.63
2023-04-04T16:53:54.190Z,100705.19
2023-04-04T16:56:20.599Z,100708.06
2023-04-04T16:58:47.173Z,100707.50
2023-04-04T17:01:15.038Z,100711.91
2023-04-04T17:03:41.569Z,100706.75
2023-04-04T17:06:08.240Z,100704.72
2023-04-04T17:08:34.620Z,100708.84
2023-04-04T17:11:01.453Z,100707.56
2023-04-04T17:13:27.876Z,100708.84
2023-04-04T17:15:54.281Z,100711.94
2023-04-04T17:18:20.664Z,100716.88
2023-04-04T17:20:48.944Z,100719.44
2023-04-04T17:23:15.405Z,100721.50
2023-04-04T17:25:41.817Z,100715.31
2023-04-04T17:28:08.338Z,100723.03
2023-04-04T17:30:34.980Z,100728.47
2023-04-04T17:33:01.415Z,100733.97
2023-04-04T17:35:27.989Z,100727.69
2023-04-04T17:37:54.671Z,100730.78
2023-04-04T17:40:21.254Z,100729.84
2023-04-04T17:42:47.748Z,100727.66
2023-04-04T17:45:14.624Z,100730.50
2023-04-04T17:47:41.048Z,100727.25
2023-04-04T17:50:07.887Z,100731.34
2023-04-04T17:52:34.273Z,100734.56
2023-04-04T17:55:00.673Z,100736.59
2023-04-04T17:57:27.197Z,100744.81
2023-04-04T17:59:53.719Z,100749.66
2023-04-04T18:02:20.546Z,100751.22
2023-04-04T18:04:47.354Z,100748.91
2023-04-04T18:07:14.315Z,100757.53
2023-04-04T18:09:41.149Z,100756.38
2023-04-04T18:12:07.913Z,100762.91
2023-04-04T18:14:34.308Z,100773.94
2023-04-04T18:17:00.847Z,100770.56
2023-04-04T18:19:27.294Z,100778.53
2023-04-04T18:21:54.292Z,100777.34
2023-04-04T18:24:21.116Z,100778.34
2023-04-04T18:26:47.533Z,100790.63
2023-04-04T18:29:14.876Z,100786.63
2023-04-04T18:31:41.394Z,100800.88
2023-04-04T18:34:46.164Z,100797.41
2023-04-04T18:37:12.703Z,100802.09
2023-04-04T18:39:39.078Z,100806.94
2023-04-04T18:42:05.539Z,100804.59
2023-04-04T18:44:32.907Z,100811.13
2023-04-04T18:47:04.003Z,100810.84
2023-04-04T18:49:31.207Z,100815.84
2023-04-04T18:51:58.142Z,100819.16
2023-04-04T18:54:26.036Z,100825.84
2023-04-04T18:56:53.921Z,100833.13
2023-04-04T18:59:22.456Z,100834.22
2023-04-04T19:01:48.998Z,100835.00
2023-04-04T19:04:19.685Z,100838.38
2023-04-04T19:06:48.729Z,100839.59
2023-04-04T19:09:15.384Z,100842.38
2023-04-04T19:11:42.964Z,100845.72
2023-04-04T19:14:09.551Z,100852.69
2023-04-04T19:16:36.084Z,100847.44
2023-04-04T19:19:02.519Z,100849.75
2023-04-04T19:21:28.982Z,100854.44
2023-04-04T19:23:55.423Z,100856.56
2023-04-04T19:26:21.831Z,100856.06
2023-04-04T19:28:48.317Z,100864.84
2023-04-04T19:31:22.323Z,100856.38
2023-04-04T19:33:54.938Z,100866.16
2023-04-04T19:36:21.997Z,100872.25
2023-04-04T19:38:49.264Z,100874.69
2023-04-04T19:41:18.686Z,100876.06
2023-04-04T19:43:46.961Z,100875.75
2023-04-04T19:46:28.959Z,100885.13
2023-04-04T19:49:00.116Z,100891.03
2023-04-04T19:51:27.438Z,100887.69
2023-04-04T19:53:55.563Z,100891.94
2023-04-04T19:56:24.548Z,100894.50
2023-04-04T19:58:54.544Z,100892.69
2023-04-04T20:01:23.124Z,100897.69
2023-04-04T20:03:49.767Z,100903.56
2023-04-04T20:06:22.223Z,100904.66
2023-04-04T20:08:51.732Z,100906.91
2023-04-04T20:11:21.639Z,100905.75
2023-04-04T20:13:49.960Z,100912.22
2023-04-04T20:16:17.298Z,100913.72
2023-04-04T20:18:46.081Z,100924.31
2023-04-04T20:21:24.182Z,100922.66
2023-04-04T20:23:53.222Z,100926.72
2023-04-04T20:26:38.149Z,100935.19
2023-04-04T20:29:13.627Z,100939.72
2023-04-04T20:31:44.415Z,100941.22
2023-04-04T20:34:52.930Z,100949.19
2023-04-04T20:37:24.901Z,100954.81
2023-04-04T20:39:54.105Z,100952.25
2023-04-04T20:42:29.820Z,100955.84
2023-04-04T20:45:00.930Z,100954.31
2023-04-04T20:47:51.576Z,100967.75
2023-04-04T20:50:18.416Z,100970.00
2023-04-04T20:53:03.007Z,100968.94
2023-04-04T20:55:31.556Z,100974.69
2023-04-04T20:58:27.399Z,100978.59
2023-04-04T21:00:55.152Z,100981.28
2023-04-04T21:03:32.575Z,100988.50
2023-04-04T21:06:10.654Z,100994.06
2023-04-04T21:08:38.322Z,100989.97
2023-04-04T21:11:06.678Z,100993.13
2023-04-04T21:13:38.626Z,100991.03
2023-04-04T21:16:13.582Z,100998.13
2023-04-04T21:18:41.434Z,100995.25
2023-04-04T21:21:19.522Z,100996.75
2023-04-04T21:23:47.203Z,101001.84
2023-04-04T21:26:34.572Z,101004.25
2023-04-04T21:29:08.525Z,101010.28
2023-04-04T21:31:37.817Z,101005.00
2023-04-04T21:34:25.480Z,101009.38
2023-04-04T21:37:00.554Z,101012.72
2023-04-04T21:39:30.615Z,101013.56
2023-04-04T21:42:03.719Z,101013.22
2023-04-04T21:44:31.928Z,101027.34
2023-04-04T21:46:58.389Z,101021.31
2023-04-04T21:49:25.339Z,101025.78
2023-04-04T21:51:52.173Z,101031.09
2023-04-04T21:54:19.129Z,101028.97
2023-04-04T21:56:46.332Z,101033.03
2023-04-04T21:59:12.862Z,101028.44
2023-04-04T22:01:40.569Z,101030.22
2023-04-04T22:04:07.215Z,101036.16
2023-04-04T22:06:33.723Z,101039.94
2023-04-04T22:09:01.810Z,101040.00
2023-04-04T22:11:28.646Z,101044.78
2023-04-04T22:14:17.666Z,101047.44
2023-04-04T22:16:44.663Z,101051.31
2023-04-04T22:19:11.786Z,101049.09
2023-04-04T22:21:38.484Z,101052.47
2023-04-04T22:24:05.480Z,101053.38
2023-04-04T22:26:33.112Z,101050.41
2023-04-04T22:29:04.033Z,101046.88
2023-04-04T22:31:31.213Z,101048.94
2023-04-04T22:33:57.800Z,101053.19
2023-04-04T22:36:24.957Z,101048.47
2023-04-04T22:38:56.265Z,101055.28
2023-04-04T22:41:26.373Z,101055.59
2023-04-04T22:43:52.789Z,101066.66
2023-04-04T22:46:19.928Z,101060.22
2023-04-04T22:48:46.775Z,101060.38
2023-04-04T22:51:15.117Z,101053.50
2023-04-04T22:53:43.932Z,101060.66
2023-04-04T22:56:10.737Z,101056.78
2023-04-04T22:58:37.238Z,101066.47
2023-04-04T23:01:03.666Z,101060.53
2023-04-04T23:03:31.055Z,101061.69
2023-04-04T23:05:57.492Z,101061.69
2023-04-04T23:08:23.859Z,101061.69
2023-04-04T23:10:50.245Z,101064.47
2023-04-04T23:13:16.860Z,101060.06
2023-04-04T23:15:44.982Z,101063.94
2023-04-04T23:18:12.378Z,101062.06
2023-04-04T23:20:39.453Z,101063.63
2023-04-04T23:23:06.207Z,101065.19
2023-04-04T23:25:32.586Z,101068.44
2023-04-04T23:27:59.027Z,101065.47
2023-04-04T23:30:25.580Z,101074.09
2023-04-04T23:32:52.024Z,101069.25
2023-04-04T23:35:18.522Z,101082.34
2023-04-04T23:37:45.720Z,101078.91
2023-04-04T23:40:12.216Z,101080.38
2023-04-04T23:42:38.704Z,101075.38
2023-04-04T23:45:05.560Z,101085.41
2023-04-04T23:47:32.196Z,101085.28
2023-04-04T23:49:58.774Z,101085.72
2023-04-04T23:52:25.346Z,101088.50
2023-04-04T23:54:51.709Z,101094.22
2023-04-04T23:57:18.077Z,101095.88
2023-04-04T23:59:44.500Z,101095.72
